Main page
METAR-TAF:

METAR-TAF

Airports :

León, Spain

León Airport

latitude: 42-35N, longitude: 005-39W, elevation: 926 m

Current weather observation

The report was made 49 minutes ago, at 16:00 UTC
Wind 10 kt from the West/Southwest, varying between South and West
Temperature 25°C
Humidity 32%
Pressure 1017 hPa
Visibility 10 km or more
Few clouds at a height of 4500 ft

METAR: LELN 221600Z 24010KT 190V280 9999 FEW045 25/07 Q1017

Time: 18:49 (16:49 UTC)

Forecast

The report was made 2 hours and 49 minutes ago, at 14:00 UTC
Forecast valid from 22 at 15 UTC to 22 at 24 UTC
Wind 10 kt from the West
Visibility 10 km or more
Few clouds at a height of 4500 ft
Temporary
from 22 at 15 UTC to 22 at 19 UTC
Wind 15 kt from the West with gusts up to 25 kt
Becoming
from 22 at 21 UTC to 22 at 23 UTC
Wind 5 kt from variable directions

TAF: LELN 221400Z 2215/2224 27010KT 9999 FEW045 TEMPO 2215/2219 27015G25KT BECMG 2221/2223 VRB05KT

Weather observations and forecasts of more than 4000 airports (METAR and TAF reports).

The available stations are represented by yellow and red dots on the map.

Hover mouse over dot to see the name of the station.

Then click to see weather observations and forecasts.

To change the map : click on the green buttons with a black cross to zoom in, on the green button with a dash to zoom out, or on the green arrows for adjacent maps.


METAR-TAF: